createdAt,value
2019-03-24T00:02:23.160Z,20.20
2019-03-24T00:04:51.395Z,19.73
2019-03-24T00:07:19.605Z,18.90
2019-03-24T00:09:47.801Z,20.50
2019-03-24T00:12:16.075Z,19.83
2019-03-24T00:14:44.334Z,18.60
2019-03-24T00:17:12.573Z,18.03
2019-03-24T00:19:40.756Z,17.60
2019-03-24T00:22:08.947Z,18.73
2019-03-24T00:24:37.165Z,18.40
2019-03-24T00:27:05.390Z,17.87
2019-03-24T00:29:33.571Z,18.90
2019-03-24T00:32:01.796Z,18.60
2019-03-24T00:34:30.012Z,18.73
2019-03-24T00:36:58.233Z,19.93
2019-03-24T00:39:26.418Z,20.10
2019-03-24T00:41:54.672Z,20.40
2019-03-24T00:44:22.862Z,20.70
2019-03-24T00:46:51.096Z,21.20
2019-03-24T00:49:19.356Z,22.43
2019-03-24T00:51:47.574Z,20.53
2019-03-24T00:54:15.813Z,21.37
2019-03-24T00:56:44.025Z,19.17
2019-03-24T00:59:12.249Z,18.57
2019-03-24T01:01:40.440Z,19.43
2019-03-24T01:04:08.623Z,18.20
2019-03-24T01:06:36.823Z,17.67
2019-03-24T01:09:06.197Z,17.00
2019-03-24T01:11:34.432Z,16.90
2019-03-24T01:14:02.616Z,15.83
2019-03-24T01:16:30.837Z,15.00
2019-03-24T01:18:59.061Z,12.60
2019-03-24T01:21:27.277Z,10.60
2019-03-24T01:23:55.454Z,9.43
2019-03-24T01:26:23.644Z,9.40
2019-03-24T01:28:51.874Z,7.07
2019-03-24T01:31:20.100Z,8.27
2019-03-24T01:33:48.305Z,8.50
2019-03-24T01:43:38.576Z,6.10
2019-03-24T01:53:29.897Z,5.10
2019-03-24T01:55:58.117Z,4.87
2019-03-24T01:58:26.333Z,5.30
2019-03-24T02:00:54.510Z,5.20
2019-03-24T02:03:22.698Z,5.70
2019-03-24T02:05:50.913Z,4.97
2019-03-24T02:08:19.084Z,4.77
2019-03-24T03:19:46.898Z,6.80
2019-03-24T03:46:52.825Z,6.00
2019-03-24T03:49:18.672Z,6.50
2019-03-24T03:51:46.896Z,6.30
2019-03-24T03:54:15.106Z,6.30
2019-03-24T03:56:43.277Z,5.90
2019-03-24T03:59:11.478Z,6.00
2019-03-24T04:01:39.850Z,5.73
2019-03-24T04:04:08.074Z,5.17
2019-03-24T04:06:36.255Z,5.90
2019-03-24T04:11:33.106Z,6.43
2019-03-24T04:14:01.298Z,5.60
2019-03-24T04:16:29.484Z,6.70
2019-03-24T04:23:52.411Z,6.60
2019-03-24T04:26:20.694Z,6.27
2019-03-24T04:28:48.871Z,5.57
2019-03-24T04:31:17.099Z,5.70
2019-03-24T04:33:45.338Z,6.30
2019-03-24T04:36:13.512Z,6.10
2019-03-24T04:38:41.704Z,5.80
2019-03-24T04:41:09.910Z,5.50
2019-03-24T04:43:38.095Z,6.40
2019-03-24T04:46:06.276Z,6.30
2019-03-24T04:48:34.471Z,6.10
2019-03-24T04:51:02.654Z,6.00
2019-03-24T04:53:30.875Z,6.10
2019-03-24T04:55:59.059Z,6.20
2019-03-24T04:58:27.274Z,6.45
2019-03-24T05:00:55.489Z,7.33
2019-03-24T05:03:23.696Z,6.33
2019-03-24T05:05:52.150Z,6.70
2019-03-24T05:08:20.526Z,6.57
2019-03-24T05:10:48.752Z,7.10
2019-03-24T05:13:16.933Z,6.80
2019-03-24T05:15:45.113Z,6.55
2019-03-24T05:18:13.333Z,7.30
2019-03-24T05:20:41.514Z,6.07
2019-03-24T05:23:09.726Z,6.37
2019-03-24T05:25:37.929Z,5.70
2019-03-24T05:28:06.141Z,5.70
2019-03-24T05:30:35.764Z,6.13
2019-03-24T05:33:04.011Z,6.43
2019-03-24T05:35:32.196Z,6.00
2019-03-24T05:38:00.397Z,6.30
2019-03-24T05:40:28.591Z,5.63
2019-03-24T05:42:56.767Z,6.00
2019-03-24T05:45:24.985Z,6.20
2019-03-24T05:47:53.168Z,5.83
2019-03-24T05:50:21.383Z,5.13
2019-03-24T05:52:49.586Z,6.37
2019-03-24T05:55:17.801Z,6.37
2019-03-24T05:57:46.005Z,5.10
2019-03-24T06:00:14.468Z,5.77
2019-03-24T06:02:42.647Z,5.90
2019-03-24T06:05:10.924Z,5.77
2019-03-24T06:07:39.145Z,6.07
2019-03-24T06:10:07.490Z,5.20
2019-03-24T06:12:35.685Z,5.47
2019-03-24T06:15:05.444Z,5.67
2019-03-24T06:17:33.656Z,5.00
2019-03-24T06:20:01.924Z,4.87
2019-03-24T06:22:30.153Z,5.50
2019-03-24T06:24:58.425Z,5.13
2019-03-24T06:27:26.641Z,6.03
2019-03-24T06:29:54.846Z,5.17
2019-03-24T06:32:23.060Z,5.70
2019-03-24T06:34:51.281Z,4.67
2019-03-24T06:37:19.485Z,5.43
2019-03-24T06:39:49.187Z,5.70
2019-03-24T06:42:17.364Z,6.23
2019-03-24T06:44:45.544Z,5.53
2019-03-24T06:47:13.759Z,6.77
2019-03-24T06:49:41.940Z,5.30
2019-03-24T06:52:10.160Z,4.97
2019-03-24T06:54:38.344Z,4.60
2019-03-24T06:57:06.524Z,4.53
2019-03-24T06:59:34.752Z,4.07
2019-03-24T07:02:02.932Z,4.40
2019-03-24T07:04:31.116Z,4.13
2019-03-24T07:06:59.315Z,4.70
2019-03-24T07:09:28.415Z,4.43
2019-03-24T07:11:56.696Z,5.13
2019-03-24T07:14:24.902Z,4.40
2019-03-24T07:16:53.081Z,3.47
2019-03-24T07:19:21.306Z,4.07
2019-03-24T07:21:49.540Z,4.20
2019-03-24T07:24:17.736Z,3.60
2019-03-24T07:26:45.952Z,4.90
2019-03-24T07:29:14.131Z,4.23
2019-03-24T07:31:42.347Z,4.53
2019-03-24T07:34:10.565Z,3.97
2019-03-24T07:36:38.751Z,3.73
2019-03-24T07:39:07.453Z,4.43
2019-03-24T07:41:36.327Z,3.90
2019-03-24T07:44:04.599Z,4.07
2019-03-24T07:46:32.769Z,3.85
2019-03-24T07:49:00.985Z,3.90
2019-03-24T07:51:29.200Z,4.93
2019-03-24T07:53:57.376Z,4.03
2019-03-24T07:56:25.557Z,4.03
2019-03-24T07:58:53.778Z,3.50
2019-03-24T08:01:21.964Z,3.50
2019-03-24T08:03:50.173Z,4.50
2019-03-24T08:06:18.348Z,4.27
2019-03-24T08:08:46.538Z,4.23
2019-03-24T08:11:14.797Z,4.07
2019-03-24T08:13:53.268Z,3.87
2019-03-24T08:16:13.801Z,4.57
2019-03-24T08:18:42.029Z,4.00
2019-03-24T08:21:10.216Z,5.47
2019-03-24T08:23:38.434Z,5.07
2019-03-24T08:26:06.642Z,4.17
2019-03-24T08:28:34.915Z,4.93
2019-03-24T08:31:03.096Z,4.70
2019-03-24T08:33:31.288Z,3.80
2019-03-24T08:35:59.501Z,4.40
2019-03-24T08:38:27.708Z,3.77
2019-03-24T08:40:55.960Z,4.10
2019-03-24T08:43:24.131Z,5.17
2019-03-24T08:45:52.316Z,4.70
2019-03-24T08:48:20.544Z,4.60
2019-03-24T08:50:48.796Z,4.20
2019-03-24T08:53:16.972Z,4.20
2019-03-24T08:55:45.245Z,5.20
2019-03-24T08:58:13.423Z,4.70
2019-03-24T09:03:08.985Z,3.90
2019-03-24T09:05:37.213Z,4.40
2019-03-24T09:08:05.460Z,4.40
2019-03-24T09:10:33.672Z,3.80
2019-03-24T09:13:01.925Z,4.03
2019-03-24T09:15:30.129Z,3.70
2019-03-24T09:17:58.307Z,3.60
2019-03-24T09:20:26.500Z,3.70
2019-03-24T09:22:54.712Z,3.83
2019-03-24T09:25:22.945Z,3.60
2019-03-24T09:27:51.219Z,3.90
2019-03-24T09:30:28.890Z,4.00
2019-03-24T09:32:57.772Z,4.03
2019-03-24T09:35:26.002Z,3.90
2019-03-24T09:37:54.183Z,3.57
2019-03-24T09:40:29.297Z,3.70
2019-03-24T09:43:00.696Z,3.60
2019-03-24T09:45:29.698Z,3.73
2019-03-24T09:47:59.144Z,3.33
2019-03-24T09:50:27.376Z,3.53
2019-03-24T09:52:55.727Z,3.03
2019-03-24T09:55:24.885Z,3.53
2019-03-24T09:57:53.083Z,3.20
2019-03-24T10:00:21.284Z,4.00
2019-03-24T10:02:49.479Z,3.20
2019-03-24T10:05:17.730Z,3.90
2019-03-24T10:07:46.428Z,3.83
2019-03-24T10:10:14.692Z,3.80
2019-03-24T10:12:42.888Z,3.77
2019-03-24T10:15:11.448Z,3.73
2019-03-24T10:17:39.684Z,4.63
2019-03-24T10:20:07.928Z,3.50
2019-03-24T10:22:36.156Z,3.00
2019-03-24T10:25:05.976Z,2.90
2019-03-24T10:27:34.164Z,2.67
2019-03-24T10:30:02.557Z,3.00
2019-03-24T10:32:30.772Z,3.00
2019-03-24T10:34:59.013Z,3.50
2019-03-24T10:37:27.250Z,3.60
2019-03-24T10:39:55.428Z,2.75
2019-03-24T10:42:23.661Z,3.10
2019-03-24T10:44:51.841Z,2.87
2019-03-24T10:47:20.045Z,2.40
2019-03-24T10:49:48.304Z,3.63
2019-03-24T10:52:16.492Z,3.10
2019-03-24T10:54:44.701Z,3.23
2019-03-24T10:57:12.878Z,2.80
2019-03-24T10:59:41.091Z,4.00
2019-03-24T11:02:09.276Z,2.50
2019-03-24T11:04:37.451Z,3.75
2019-03-24T11:07:05.680Z,3.83
2019-03-24T11:09:33.890Z,3.63
2019-03-24T11:12:02.131Z,3.80
2019-03-24T11:14:30.345Z,3.57
2019-03-24T11:16:58.641Z,3.90
2019-03-24T11:19:35.354Z,2.97
2019-03-24T11:21:56.829Z,3.20
2019-03-24T11:24:25.056Z,3.20
2019-03-24T11:26:53.270Z,3.10
2019-03-24T11:29:21.546Z,2.93
2019-03-24T11:31:49.761Z,2.90
2019-03-24T11:34:17.952Z,3.80
2019-03-24T11:36:46.160Z,3.40
2019-03-24T11:39:14.343Z,3.60
2019-03-24T11:41:42.619Z,3.10
2019-03-24T11:44:10.807Z,3.60
2019-03-24T11:46:38.992Z,3.60
2019-03-24T11:49:08.734Z,3.17
2019-03-24T11:51:36.940Z,3.03
2019-03-24T11:54:05.136Z,2.90
2019-03-24T11:56:33.324Z,3.70
2019-03-24T11:59:01.497Z,2.90
2019-03-24T12:01:37.919Z,3.20
2019-03-24T12:04:00.488Z,4.80
2019-03-24T12:06:28.680Z,3.00
2019-03-24T12:08:56.932Z,3.90
2019-03-24T12:11:25.099Z,3.70
2019-03-24T12:13:53.308Z,3.30
2019-03-24T12:16:21.493Z,3.20
2019-03-24T12:18:49.708Z,3.23
2019-03-24T12:21:17.895Z,3.60
2019-03-24T12:23:46.121Z,3.10
2019-03-24T12:26:15.932Z,3.50
2019-03-24T12:28:44.140Z,4.25
2019-03-24T12:31:12.337Z,3.80
2019-03-24T12:33:40.516Z,3.50
2019-03-24T12:36:08.692Z,3.70
2019-03-24T12:38:36.909Z,3.30
2019-03-24T12:41:05.293Z,2.50
2019-03-24T12:43:33.477Z,3.05
2019-03-24T12:48:29.124Z,3.30
2019-03-24T12:50:57.892Z,3.10
2019-03-24T12:53:26.068Z,3.30
2019-03-24T12:55:54.291Z,2.90
2019-03-24T12:58:22.546Z,2.80
2019-03-24T13:00:50.746Z,2.87
2019-03-24T13:05:46.272Z,2.75
2019-03-24T13:08:15.150Z,2.60
2019-03-24T13:10:43.969Z,3.37
2019-03-24T13:13:12.196Z,3.43
2019-03-24T13:15:40.639Z,3.00
2019-03-24T13:18:09.000Z,3.07
2019-03-24T13:20:38.743Z,3.17
2019-03-24T13:23:07.179Z,3.33
2019-03-24T13:25:36.379Z,2.50
2019-03-24T13:28:04.927Z,2.90
2019-03-24T13:30:33.137Z,3.20
2019-03-24T13:33:01.419Z,3.37
2019-03-24T13:35:29.627Z,3.40
2019-03-24T13:37:58.081Z,3.27
2019-03-24T13:40:26.324Z,3.17
2019-03-24T13:42:54.506Z,3.30
2019-03-24T13:50:17.440Z,3.00
2019-03-24T13:52:45.657Z,2.90
2019-03-24T13:55:13.908Z,2.87
2019-03-24T13:57:42.087Z,2.60
2019-03-24T14:02:38.632Z,3.00
2019-03-24T14:05:06.880Z,3.00
2019-03-24T14:07:35.099Z,2.80
2019-03-24T14:10:04.380Z,2.80
2019-03-24T15:06:35.457Z,4.00
2019-03-24T15:09:05.332Z,3.15
2019-03-24T16:15:27.606Z,3.37
2019-03-24T16:17:55.810Z,3.00
2019-03-24T16:20:23.996Z,2.87
2019-03-24T16:22:52.185Z,2.95
2019-03-24T16:25:20.400Z,3.27
2019-03-24T16:27:48.632Z,2.90
2019-03-24T16:30:16.836Z,3.00
2019-03-24T16:37:39.756Z,3.90
2019-03-24T16:40:08.137Z,4.00
2019-03-24T16:42:36.393Z,3.37
2019-03-24T16:49:59.315Z,3.20
2019-03-24T16:52:27.545Z,3.00
2019-03-24T16:54:55.736Z,3.50
2019-03-24T17:24:25.724Z,3.20
2019-03-24T17:26:53.915Z,3.20
2019-03-24T17:29:22.097Z,3.77
2019-03-24T17:31:50.290Z,3.20
2019-03-24T17:34:18.497Z,3.20
2019-03-24T17:36:46.687Z,2.57
2019-03-24T17:39:14.853Z,2.50
2019-03-24T17:41:43.098Z,3.20
2019-03-24T17:44:12.790Z,2.87
2019-03-24T17:46:41.186Z,2.90
2019-03-24T17:49:09.437Z,3.20
2019-03-24T17:51:37.670Z,4.30
2019-03-24T17:54:05.895Z,3.73
2019-03-24T17:56:34.132Z,4.50
2019-03-24T17:59:02.352Z,7.03
2019-03-24T18:01:30.561Z,4.33
2019-03-24T18:03:58.743Z,4.27
2019-03-24T18:06:26.923Z,4.73
2019-03-24T18:08:55.178Z,4.30
2019-03-24T18:11:23.355Z,3.80
2019-03-24T18:13:51.582Z,3.30
2019-03-24T18:16:19.761Z,2.67
2019-03-24T18:18:47.954Z,3.83
2019-03-24T18:21:16.663Z,3.63
2019-03-24T18:23:45.481Z,3.43
2019-03-24T18:26:13.690Z,3.60
2019-03-24T18:28:41.967Z,3.47
2019-03-24T18:31:10.182Z,3.60
2019-03-24T18:33:38.356Z,3.80
2019-03-24T18:36:06.585Z,3.80
2019-03-24T18:38:34.759Z,3.67
2019-03-24T18:41:02.996Z,4.27
2019-03-24T18:43:31.233Z,3.93
2019-03-24T18:45:59.449Z,4.00
2019-03-24T18:48:27.661Z,4.20
2019-03-24T18:50:55.832Z,4.03
2019-03-24T18:53:24.049Z,3.43
2019-03-24T18:55:52.269Z,3.50
2019-03-24T18:58:20.452Z,4.20
2019-03-24T19:00:48.630Z,5.23
2019-03-24T19:03:16.820Z,4.07
2019-03-24T19:05:45.035Z,4.40
2019-03-24T19:08:13.221Z,5.07
2019-03-24T19:10:41.441Z,4.00
2019-03-24T19:13:09.659Z,5.13
2019-03-24T19:15:37.889Z,6.00
2019-03-24T19:18:06.095Z,7.40
2019-03-24T19:20:34.309Z,8.70
2019-03-24T19:23:02.518Z,8.43
2019-03-24T19:25:30.733Z,6.40
2019-03-24T19:27:58.913Z,6.30
2019-03-24T19:30:34.161Z,6.60
2019-03-24T19:33:02.419Z,7.57
2019-03-24T19:35:30.674Z,16.57
2019-03-24T19:37:59.439Z,21.77
2019-03-24T19:40:29.196Z,20.77
2019-03-24T19:42:57.624Z,13.87
2019-03-24T19:45:25.904Z,22.77
2019-03-24T19:47:54.740Z,8.40
2019-03-24T19:50:23.028Z,8.60
2019-03-24T19:52:51.207Z,6.90
2019-03-24T19:55:19.464Z,8.17
2019-03-24T19:57:47.653Z,8.77
2019-03-24T20:00:15.903Z,8.43
2019-03-24T20:02:44.105Z,9.60
2019-03-24T20:05:12.352Z,10.47
2019-03-24T20:07:47.863Z,12.10
2019-03-24T20:10:10.481Z,10.37
2019-03-24T20:12:38.781Z,9.93
2019-03-24T20:15:07.196Z,9.57
2019-03-24T20:17:35.375Z,6.93
2019-03-24T20:20:05.187Z,6.10
2019-03-24T20:22:33.398Z,6.90
2019-03-24T20:25:01.580Z,7.20
2019-03-24T20:27:29.772Z,5.97
2019-03-24T20:29:58.062Z,6.10
2019-03-24T20:32:26.286Z,6.17
2019-03-24T20:34:54.475Z,6.00
2019-03-24T20:37:22.728Z,6.10
2019-03-24T20:39:50.934Z,5.27
2019-03-24T20:42:19.126Z,5.30
2019-03-24T20:44:47.384Z,6.00
2019-03-24T20:47:15.618Z,6.17
2019-03-24T20:49:43.791Z,5.80
2019-03-24T20:52:12.997Z,5.30
2019-03-24T20:54:41.201Z,5.40
2019-03-24T20:57:09.425Z,5.83
2019-03-24T20:59:37.700Z,5.20
2019-03-24T21:02:05.959Z,5.03
2019-03-24T21:04:34.152Z,5.37
2019-03-24T21:07:02.340Z,5.80
2019-03-24T21:09:30.523Z,5.50
2019-03-24T21:11:58.703Z,5.60
2019-03-24T21:14:26.914Z,5.50
2019-03-24T21:16:55.236Z,5.00
2019-03-24T21:19:23.415Z,5.30
2019-03-24T21:21:51.595Z,6.23
2019-03-24T21:24:19.816Z,5.57
2019-03-24T21:26:48.045Z,6.63
2019-03-24T21:29:16.256Z,6.00
2019-03-24T21:31:44.432Z,5.70
2019-03-24T21:34:12.641Z,6.00
2019-03-24T21:36:40.888Z,5.37
2019-03-24T21:41:36.544Z,5.27
2019-03-24T21:44:04.752Z,5.80
2019-03-24T21:53:55.930Z,6.20
2019-03-24T21:56:24.137Z,5.80
2019-03-24T21:58:52.327Z,6.20
2019-03-24T22:01:20.534Z,6.10
2019-03-24T22:03:48.737Z,5.65
2019-03-24T22:06:16.949Z,5.57
2019-03-24T22:08:45.136Z,5.40
2019-03-24T22:11:13.343Z,6.45
2019-03-24T22:13:41.573Z,5.50
2019-03-24T22:16:09.746Z,6.35
2019-03-24T22:18:37.935Z,6.00
2019-03-24T22:21:06.119Z,5.60
2019-03-24T22:23:34.345Z,5.57
2019-03-24T22:26:02.633Z,5.75
2019-03-24T22:28:30.819Z,5.70
2019-03-24T22:30:59.044Z,5.67
2019-03-24T22:33:28.375Z,6.05
2019-03-24T22:35:56.568Z,5.47
2019-03-24T22:38:24.762Z,5.90
2019-03-24T22:40:52.947Z,6.53
2019-03-24T22:43:21.154Z,5.87
2019-03-24T22:45:49.367Z,5.77
2019-03-24T22:48:17.615Z,5.90
2019-03-24T22:50:45.871Z,5.90
2019-03-24T22:53:14.052Z,5.00
2019-03-24T22:55:42.260Z,5.60
2019-03-24T22:58:10.443Z,5.60
2019-03-24T23:00:46.180Z,5.20
2019-03-24T23:03:14.428Z,5.63
2019-03-24T23:05:42.638Z,5.70
2019-03-24T23:08:10.856Z,5.80
2019-03-24T23:10:39.103Z,6.17
2019-03-24T23:13:07.345Z,6.17
2019-03-24T23:15:35.564Z,5.80
2019-03-24T23:18:03.833Z,5.63
2019-03-24T23:20:32.017Z,6.05
2019-03-24T23:23:00.231Z,6.87
2019-03-24T23:25:28.444Z,5.80
2019-03-24T23:27:56.632Z,5.93
2019-03-24T23:30:24.837Z,5.40
2019-03-24T23:32:53.074Z,5.50
2019-03-24T23:35:21.287Z,6.20
2019-03-24T23:37:49.529Z,6.00
2019-03-24T23:40:17.723Z,5.93
2019-03-24T23:42:45.899Z,6.47
2019-03-24T23:45:14.190Z,5.73
2019-03-24T23:47:42.390Z,6.50
2019-03-24T23:50:10.895Z,6.40
2019-03-24T23:52:39.074Z,5.80
2019-03-24T23:55:07.388Z,5.55
2019-03-24T23:57:35.647Z,5.50
